createdAt,value
2022-11-09T00:01:01.257Z,96643.03
2022-11-09T00:03:27.568Z,96636.97
2022-11-09T00:05:57.484Z,96650.22
2022-11-09T00:08:24.368Z,96654.94
2022-11-09T00:10:50.903Z,96656.78
2022-11-09T00:13:17.632Z,96656.41
2022-11-09T00:15:44.139Z,96653.66
2022-11-09T00:18:10.559Z,96645.78
2022-11-09T00:20:36.890Z,96643.16
2022-11-09T00:23:03.233Z,96652.00
2022-11-09T00:25:29.951Z,96643.31
2022-11-09T00:27:56.304Z,96634.00
2022-11-09T00:30:22.732Z,96638.25
2022-11-09T00:32:49.294Z,96649.38
2022-11-09T00:35:18.751Z,96646.94
2022-11-09T00:37:45.108Z,96645.47
2022-11-09T00:40:11.774Z,96646.78
2022-11-09T00:42:38.089Z,96646.47
2022-11-09T00:45:04.773Z,96640.06
2022-11-09T00:47:31.101Z,96649.59
2022-11-09T00:49:57.426Z,96650.06
2022-11-09T00:52:23.754Z,96647.28
2022-11-09T00:54:50.204Z,96654.31
2022-11-09T00:57:17.213Z,96646.78
2022-11-09T00:59:45.653Z,96643.53
2022-11-09T01:02:11.982Z,96649.59
2022-11-09T01:04:38.319Z,96641.53
2022-11-09T01:07:04.702Z,96636.97
2022-11-09T01:09:31.142Z,96633.00
2022-11-09T01:11:57.522Z,96626.47
2022-11-09T01:14:23.848Z,96617.81
2022-11-09T01:16:50.592Z,96615.50
2022-11-09T01:19:19.898Z,96604.22
2022-11-09T01:21:46.514Z,96608.81
2022-11-09T01:24:12.822Z,96608.31
2022-11-09T01:26:39.149Z,96616.81
2022-11-09T01:29:06.565Z,96620.41
2022-11-09T01:31:32.981Z,96624.00
2022-11-09T01:33:59.305Z,96640.50
2022-11-09T01:36:25.742Z,96638.22
2022-11-09T01:38:52.170Z,96638.69
2022-11-09T01:41:20.264Z,96631.16
2022-11-09T01:44:08.924Z,96627.09
2022-11-09T01:47:01.461Z,96623.31
2022-11-09T01:49:43.347Z,96631.97
2022-11-09T01:52:19.274Z,96628.38
2022-11-09T01:54:49.195Z,96629.50
2022-11-09T01:57:36.521Z,96622.78
2022-11-09T02:00:07.451Z,96620.84
2022-11-09T02:02:34.353Z,96615.78
2022-11-09T02:05:03.305Z,96614.34
2022-11-09T02:07:29.792Z,96619.38
2022-11-09T02:10:01.003Z,96623.28
2022-11-09T02:12:29.082Z,96632.88
2022-11-09T02:14:56.766Z,96626.69
2022-11-09T02:17:23.258Z,96602.19
2022-11-09T02:19:59.004Z,96596.94
2022-11-09T02:22:25.539Z,96594.16
2022-11-09T02:24:56.120Z,96591.25
2022-11-09T02:27:23.233Z,96579.00
2022-11-09T02:29:49.882Z,96574.75
2022-11-09T02:32:20.684Z,96584.88
2022-11-09T02:34:47.127Z,96588.47
2022-11-09T02:37:13.581Z,96589.63
2022-11-09T02:39:40.068Z,96582.25
2022-11-09T02:42:10.268Z,96587.34
2022-11-09T02:44:40.645Z,96585.19
2022-11-09T02:47:06.972Z,96587.47
2022-11-09T02:49:33.322Z,96591.06
2022-11-09T02:51:59.747Z,96583.41
2022-11-09T02:54:26.141Z,96584.34
2022-11-09T02:56:54.276Z,96591.41
2022-11-09T02:59:20.684Z,96593.50
2022-11-09T03:01:46.994Z,96589.94
2022-11-09T03:04:13.321Z,96597.88
2022-11-09T03:06:39.823Z,96605.09
2022-11-09T03:09:09.887Z,96607.06
2022-11-09T03:11:36.764Z,96611.09
2022-11-09T03:14:03.482Z,96614.06
2022-11-09T03:16:30.352Z,96626.34
2022-11-09T03:18:58.074Z,96612.28
2022-11-09T03:21:24.840Z,96617.13
2022-11-09T03:23:51.255Z,96622.25
2022-11-09T03:26:17.999Z,96620.56
2022-11-09T03:28:45.423Z,96622.84
2022-11-09T03:31:11.788Z,96616.19
2022-11-09T03:33:44.302Z,96628.81
2022-11-09T03:36:10.613Z,96625.47
2022-11-09T03:38:36.954Z,96622.66
2022-11-09T03:41:03.297Z,96623.44
2022-11-09T03:43:35.701Z,96620.38
2022-11-09T03:46:02.054Z,96619.75
2022-11-09T03:48:28.397Z,96622.38
2022-11-09T03:51:04.917Z,96614.59
2022-11-09T03:53:31.227Z,96615.72
2022-11-09T03:55:57.846Z,96614.59
2022-11-09T03:58:24.544Z,96616.25
2022-11-09T04:00:50.907Z,96614.94
2022-11-09T04:03:17.530Z,96612.66
2022-11-09T04:05:44.072Z,96609.09
2022-11-09T04:08:10.395Z,96609.44
2022-11-09T04:10:36.744Z,96602.56
2022-11-09T04:13:03.145Z,96603.53
2022-11-09T04:15:29.505Z,96604.56
2022-11-09T04:17:59.608Z,96605.69
2022-11-09T04:20:27.262Z,96601.59
2022-11-09T04:22:54.503Z,96585.91
2022-11-09T04:25:20.842Z,96590.50
2022-11-09T04:27:48.238Z,96593.25
2022-11-09T04:30:14.622Z,96594.56
2022-11-09T04:32:40.960Z,96593.41
2022-11-09T04:35:07.603Z,96599.00
2022-11-09T04:37:34.048Z,96600.13
2022-11-09T04:40:00.379Z,96614.00
2022-11-09T04:42:26.691Z,96607.97
2022-11-09T04:44:53.090Z,96608.75
2022-11-09T04:47:19.408Z,96609.91
2022-11-09T04:49:45.703Z,96611.38
2022-11-09T04:52:12.023Z,96611.38
2022-11-09T04:54:38.333Z,96623.47
2022-11-09T04:57:04.733Z,96624.75
2022-11-09T04:59:31.072Z,96627.84
2022-11-09T05:01:57.411Z,96622.81
2022-11-09T05:04:23.722Z,96621.66
2022-11-09T05:06:50.073Z,96628.84
2022-11-09T05:09:16.485Z,96624.09
2022-11-09T05:11:42.812Z,96632.88
2022-11-09T05:14:11.226Z,96636.03
2022-11-09T05:16:37.536Z,96637.00
2022-11-09T05:19:03.869Z,96640.28
2022-11-09T05:21:30.187Z,96636.84
2022-11-09T05:23:59.371Z,96642.09
2022-11-09T05:26:26.867Z,96631.94
2022-11-09T05:28:53.335Z,96637.53
2022-11-09T05:31:19.665Z,96636.38
2022-11-09T05:33:48.002Z,96643.09
2022-11-09T05:36:14.304Z,96644.38
2022-11-09T05:38:40.670Z,96642.09
2022-11-09T05:41:07.048Z,96642.41
2022-11-09T05:43:39.548Z,96642.41
2022-11-09T05:46:06.861Z,96639.97
2022-11-09T05:48:33.383Z,96650.91
2022-11-09T05:51:04.057Z,96656.94
2022-11-09T05:53:30.985Z,96644.53
2022-11-09T05:56:01.177Z,96640.44
2022-11-09T05:58:27.537Z,96651.25
2022-11-09T06:00:53.920Z,96651.56
2022-11-09T06:03:20.475Z,96660.03
2022-11-09T06:05:47.589Z,96666.75
2022-11-09T06:08:14.999Z,96676.72
2022-11-09T06:10:42.040Z,96677.69
2022-11-09T06:13:08.495Z,96674.75
2022-11-09T06:15:34.945Z,96680.47
2022-11-09T06:18:01.509Z,96680.50
2022-11-09T06:20:28.462Z,96684.75
2022-11-09T06:23:02.802Z,96690.13
2022-11-09T06:25:31.663Z,96692.59
2022-11-09T06:27:58.383Z,96688.19
2022-11-09T06:30:24.795Z,96691.00
2022-11-09T06:33:05.097Z,96697.31
2022-11-09T06:35:31.530Z,96703.91
2022-11-09T06:38:00.391Z,96709.16
2022-11-09T06:40:26.981Z,96723.22
2022-11-09T06:42:55.988Z,96727.75
2022-11-09T06:45:22.342Z,96725.16
2022-11-09T06:47:48.672Z,96735.78
2022-11-09T06:50:15.069Z,96735.28
2022-11-09T06:52:41.382Z,96739.56
2022-11-09T06:55:08.312Z,96741.53
2022-11-09T06:57:34.642Z,96738.28
2022-11-09T07:00:07.307Z,96735.38
2022-11-09T07:02:33.653Z,96736.66
2022-11-09T07:05:00.216Z,96742.41
2022-11-09T07:07:28.141Z,96754.50
2022-11-09T07:09:55.788Z,96748.00
2022-11-09T07:12:22.147Z,96749.53
2022-11-09T07:14:49.535Z,96763.28
2022-11-09T07:17:15.902Z,96759.22
2022-11-09T07:19:42.273Z,96765.94
2022-11-09T07:22:08.603Z,96758.72
2022-11-09T07:24:34.936Z,96762.00
2022-11-09T07:27:01.504Z,96753.00
2022-11-09T07:29:27.855Z,96748.25
2022-11-09T07:31:54.154Z,96740.22
2022-11-09T07:34:20.484Z,96733.19
2022-11-09T07:36:46.782Z,96731.53
2022-11-09T07:39:13.181Z,96728.13
2022-11-09T07:41:39.668Z,96727.28
2022-11-09T07:44:05.971Z,96735.63
2022-11-09T07:46:35.516Z,96734.34
2022-11-09T07:49:01.890Z,96730.59
2022-11-09T07:51:28.220Z,96733.19
2022-11-09T07:53:55.587Z,96732.19
2022-11-09T07:56:21.919Z,96736.13
2022-11-09T07:58:49.879Z,96748.06
2022-11-09T08:01:17.355Z,96749.22
2022-11-09T08:03:43.807Z,96741.34
2022-11-09T08:06:14.261Z,96739.38
2022-11-09T08:08:43.614Z,96744.59
2022-11-09T08:11:09.960Z,96751.81
2022-11-09T08:13:36.420Z,96768.88
2022-11-09T08:16:03.287Z,96755.84
2022-11-09T08:18:29.849Z,96758.50
2022-11-09T08:20:56.350Z,96762.63
2022-11-09T08:23:23.029Z,96761.78
2022-11-09T08:25:55.412Z,96759.47
2022-11-09T08:28:22.825Z,96760.25
2022-11-09T08:30:57.017Z,96760.47
2022-11-09T08:33:23.332Z,96756.28
2022-11-09T08:35:53.229Z,96748.66
2022-11-09T08:38:20.314Z,96754.47
2022-11-09T08:40:46.887Z,96746.50
2022-11-09T08:43:13.581Z,96765.13
2022-11-09T08:45:40.612Z,96760.06
2022-11-09T08:48:07.527Z,96762.16
2022-11-09T08:50:34.959Z,96758.47
2022-11-09T08:53:02.068Z,96757.19
2022-11-09T08:55:28.463Z,96750.22
2022-11-09T08:57:56.035Z,96756.22
2022-11-09T09:00:22.812Z,96753.19
2022-11-09T09:02:49.360Z,96745.56
2022-11-09T09:05:16.092Z,96765.63
2022-11-09T09:07:42.476Z,96773.97
2022-11-09T09:10:10.288Z,96776.72
2022-11-09T09:12:37.095Z,96786.06
2022-11-09T09:15:03.879Z,96794.47
2022-11-09T09:17:30.379Z,96796.09
2022-11-09T09:19:56.722Z,96789.97
2022-11-09T09:22:23.128Z,96777.44
2022-11-09T09:24:49.443Z,96775.13
2022-11-09T09:27:15.764Z,96777.00
2022-11-09T09:29:42.184Z,96770.63
2022-11-09T09:32:08.583Z,96771.31
2022-11-09T09:34:35.056Z,96778.84
2022-11-09T09:37:01.702Z,96771.78
2022-11-09T09:39:33.914Z,96762.00
2022-11-09T09:42:01.656Z,96771.47
2022-11-09T09:44:50.341Z,96772.25
2022-11-09T09:47:40.785Z,96777.41
2022-11-09T09:50:12.783Z,96782.41
2022-11-09T09:52:41.031Z,96781.34
2022-11-09T09:55:18.657Z,96784.53
2022-11-09T09:57:56.869Z,96769.66
2022-11-09T10:00:25.169Z,96764.78
2022-11-09T10:02:52.727Z,96773.19
2022-11-09T10:05:19.985Z,96769.53
2022-11-09T10:08:17.754Z,96762.50
2022-11-09T10:10:53.446Z,96764.97
2022-11-09T10:13:25.825Z,96765.28
2022-11-09T10:16:00.566Z,96760.03
2022-11-09T10:18:46.587Z,96752.91
2022-11-09T10:21:27.987Z,96754.13
2022-11-09T10:24:15.896Z,96760.03
2022-11-09T10:26:46.582Z,96748.25
2022-11-09T10:29:24.123Z,96754.69
2022-11-09T10:31:52.040Z,96749.50
2022-11-09T10:34:25.450Z,96751.38
2022-11-09T10:36:57.905Z,96742.72
2022-11-09T10:39:26.721Z,96733.13
2022-11-09T10:41:53.113Z,96732.66
2022-11-09T10:44:19.966Z,96737.09
2022-11-09T10:47:09.337Z,96726.50
2022-11-09T10:49:36.299Z,96721.59
2022-11-09T10:52:02.866Z,96718.16
2022-11-09T10:54:35.087Z,96714.53
2022-11-09T10:57:11.706Z,96716.00
2022-11-09T10:59:45.109Z,96712.53
2022-11-09T11:02:28.919Z,96709.53
2022-11-09T11:05:07.389Z,96709.09
2022-11-09T11:07:35.055Z,96706.88
2022-11-09T11:10:10.657Z,96696.78
2022-11-09T11:12:36.986Z,96692.22
2022-11-09T11:15:03.477Z,96686.94
2022-11-09T11:17:35.771Z,96683.22
2022-11-09T11:20:32.325Z,96685.91
2022-11-09T11:23:15.421Z,96669.88
2022-11-09T11:25:53.858Z,96668.56
2022-11-09T11:28:23.807Z,96664.91
2022-11-09T11:30:50.140Z,96670.72
2022-11-09T11:33:18.904Z,96668.28
2022-11-09T11:35:50.170Z,96671.34
2022-11-09T11:38:21.464Z,96661.06
2022-11-09T11:41:24.395Z,96662.00
2022-11-09T11:43:53.552Z,96659.28
2022-11-09T11:46:32.167Z,96660.53
2022-11-09T11:48:58.856Z,96653.69
2022-11-09T11:51:25.229Z,96652.44
2022-11-09T11:54:02.044Z,96656.88
2022-11-09T11:56:31.218Z,96650.13
2022-11-09T11:59:04.279Z,96643.28
2022-11-09T12:01:39.594Z,96643.47
2022-11-09T12:04:21.083Z,96632.56
2022-11-09T12:06:54.765Z,96624.41
2022-11-09T12:09:31.649Z,96618.38
2022-11-09T12:12:07.379Z,96618.44
2022-11-09T12:14:33.765Z,96624.56
2022-11-09T12:17:15.688Z,96612.34
2022-11-09T12:19:50.895Z,96609.19
2022-11-09T12:22:32.688Z,96600.97
2022-11-09T12:25:08.004Z,96599.56
2022-11-09T12:27:34.319Z,96594.91
2022-11-09T12:30:16.373Z,96593.69
2022-11-09T12:32:45.764Z,96591.63
2022-11-09T12:35:21.628Z,96596.94
2022-11-09T12:37:51.937Z,96601.81
2022-11-09T12:40:25.692Z,96604.66
2022-11-09T12:42:59.299Z,96603.66
2022-11-09T12:45:25.616Z,96601.78
2022-11-09T12:47:54.768Z,96598.97
2022-11-09T12:50:23.438Z,96607.03
2022-11-09T12:52:52.323Z,96608.50
2022-11-09T12:55:22.586Z,96608.50
2022-11-09T12:57:49.303Z,96612.56
2022-11-09T13:00:38.454Z,96610.34
2022-11-09T13:03:06.726Z,96612.00
2022-11-09T13:05:39.411Z,96608.72
2022-11-09T13:08:07.364Z,96615.84
2022-11-09T13:10:37.678Z,96609.94
2022-11-09T13:13:16.443Z,96610.53
2022-11-09T13:16:01.279Z,96613.56
2022-11-09T13:18:35.314Z,96614.41
2022-11-09T13:21:21.839Z,96622.91
2022-11-09T13:24:11.769Z,96629.38
2022-11-09T13:26:38.077Z,96629.13
2022-11-09T13:29:07.526Z,96628.84
2022-11-09T13:31:52.356Z,96628.25
2022-11-09T13:34:37.564Z,96627.84
2022-11-09T13:37:22.419Z,96628.25
2022-11-09T13:39:48.756Z,96638.41
2022-11-09T13:42:34.353Z,96635.56
2022-11-09T13:45:19.282Z,96643.41
2022-11-09T13:47:50.223Z,96630.16
2022-11-09T13:50:18.315Z,96627.63
2022-11-09T13:52:50.523Z,96630.44
2022-11-09T13:55:29.201Z,96636.94
2022-11-09T13:57:57.490Z,96632.16
2022-11-09T14:00:24.771Z,96638.94
2022-11-09T14:02:54.152Z,96645.31
2022-11-09T14:05:31.087Z,96647.31
2022-11-09T14:07:59.261Z,96649.63
2022-11-09T14:10:41.102Z,96652.03
2022-11-09T14:13:29.130Z,96643.06
2022-11-09T14:16:03.649Z,96648.50
2022-11-09T14:18:34.134Z,96658.22
2022-11-09T14:21:06.620Z,96651.47
2022-11-09T14:23:33.030Z,96661.88
2022-11-09T14:26:06.652Z,96660.28
2022-11-09T14:28:35.258Z,96666.34
2022-11-09T14:31:02.594Z,96668.88
2022-11-09T14:33:30.402Z,96677.03
2022-11-09T14:35:58.082Z,96674.81
2022-11-09T14:38:24.751Z,96675.19
2022-11-09T14:40:54.392Z,96673.28
2022-11-09T14:43:20.797Z,96668.88
2022-11-09T14:45:49.481Z,96674.25
2022-11-09T14:48:18.028Z,96670.56
2022-11-09T14:50:44.787Z,96676.47
2022-11-09T14:53:22.370Z,96684.34
2022-11-09T14:55:49.624Z,96686.63
2022-11-09T14:58:16.598Z,96680.72
2022-11-09T15:00:45.974Z,96687.31
2022-11-09T15:03:22.978Z,96687.25
2022-11-09T15:05:49.383Z,96687.94
2022-11-09T15:08:21.562Z,96691.50
2022-11-09T15:10:49.430Z,96691.25
2022-11-09T15:13:16.080Z,96688.38
2022-11-09T15:15:49.917Z,96685.59
2022-11-09T15:18:21.361Z,96687.03
2022-11-09T15:20:48.358Z,96694.25
2022-11-09T15:23:22.298Z,96686.16
2022-11-09T15:25:48.967Z,96693.50
2022-11-09T15:28:20.469Z,96693.38
2022-11-09T15:30:48.847Z,96698.63
2022-11-09T15:33:18.418Z,96701.88
2022-11-09T15:35:55.631Z,96718.50
2022-11-09T15:38:33.799Z,96715.59
2022-11-09T15:41:00.890Z,96718.41
2022-11-09T15:43:27.850Z,96717.81
2022-11-09T15:45:55.251Z,96723.84
2022-11-09T15:48:22.182Z,96720.41
2022-11-09T15:50:49.374Z,96723.13
2022-11-09T15:53:15.695Z,96720.69
2022-11-09T15:55:42.099Z,96719.31
2022-11-09T15:58:11.384Z,96723.69
2022-11-09T16:00:37.762Z,96726.69
2022-11-09T16:03:04.233Z,96734.84
2022-11-09T16:05:30.634Z,96739.75
2022-11-09T16:07:56.944Z,96731.22
2022-11-09T16:10:27.140Z,96729.94
2022-11-09T16:12:55.907Z,96728.31
2022-11-09T16:15:23.175Z,96727.69
2022-11-09T16:17:50.406Z,96733.63
2022-11-09T16:20:17.693Z,96732.00
2022-11-09T16:22:44.107Z,96747.56
2022-11-09T16:25:10.597Z,96746.50
2022-11-09T16:27:52.696Z,96743.81
2022-11-09T16:30:19.364Z,96746.16
2022-11-09T16:32:45.742Z,96741.91
2022-11-09T16:35:28.482Z,96742.53
2022-11-09T16:37:56.030Z,96746.22
2022-11-09T16:40:22.538Z,96751.31
2022-11-09T16:42:51.640Z,96752.84
2022-11-09T16:45:18.114Z,96757.69
2022-11-09T16:47:49.202Z,96754.50
2022-11-09T16:50:15.778Z,96765.47
2022-11-09T16:52:42.411Z,96767.47
2022-11-09T16:55:09.689Z,96767.81
2022-11-09T16:57:36.638Z,96777.16
2022-11-09T17:00:04.334Z,96784.41
2022-11-09T17:02:30.723Z,96782.97
2022-11-09T17:04:57.331Z,96783.13
2022-11-09T17:07:23.809Z,96784.31
2022-11-09T17:09:50.194Z,96789.91
2022-11-09T17:12:16.520Z,96781.72
2022-11-09T17:14:42.921Z,96787.97
2022-11-09T17:17:09.383Z,96789.16
2022-11-09T17:19:35.978Z,96797.75
2022-11-09T17:22:02.487Z,96800.81
2022-11-09T17:24:28.852Z,96803.78
2022-11-09T17:26:55.275Z,96799.06
2022-11-09T17:29:22.431Z,96804.13
2022-11-09T17:31:48.787Z,96806.13
2022-11-09T17:34:15.984Z,96809.31
2022-11-09T17:37:03.051Z,96807.59
2022-11-09T17:39:28.907Z,96806.16
2022-11-09T17:41:55.350Z,96812.34
2022-11-09T17:44:21.776Z,96810.78
2022-11-09T17:46:48.235Z,96806.19
2022-11-09T17:49:15.027Z,96818.38
2022-11-09T17:51:41.478Z,96821.31
2022-11-09T17:54:07.860Z,96832.16
2022-11-09T17:56:35.033Z,96812.75
2022-11-09T17:59:03.401Z,96819.28
2022-11-09T18:01:30.283Z,96832.16
2022-11-09T18:03:56.705Z,96826.56
2022-11-09T18:06:24.013Z,96832.16
2022-11-09T18:09:10.732Z,96834.78
2022-11-09T18:11:36.885Z,96827.31
2022-11-09T18:14:03.454Z,96827.56
2022-11-09T18:16:29.803Z,96826.56
2022-11-09T18:19:00.641Z,96823.94
2022-11-09T18:21:28.519Z,96833.03
2022-11-09T18:23:55.192Z,96833.84
2022-11-09T18:26:21.680Z,96835.44
2022-11-09T18:28:48.084Z,96836.16
2022-11-09T18:31:14.521Z,96837.81
2022-11-09T18:33:41.311Z,96844.09
2022-11-09T18:36:12.111Z,96849.34
2022-11-09T18:38:39.018Z,96843.44
2022-11-09T18:41:09.775Z,96851.06
2022-11-09T18:43:36.324Z,96845.34
2022-11-09T18:46:04.630Z,96849.91
2022-11-09T18:48:31.326Z,96859.50
2022-11-09T18:50:58.451Z,96859.84
2022-11-09T18:53:26.272Z,96857.66
2022-11-09T18:55:52.916Z,96851.47
2022-11-09T18:58:20.045Z,96852.94
2022-11-09T19:00:46.737Z,96852.09
2022-11-09T19:03:16.331Z,96862.13
2022-11-09T19:05:43.319Z,96853.78
2022-11-09T19:08:10.199Z,96846.84
2022-11-09T19:10:36.971Z,96864.44
2022-11-09T19:13:05.089Z,96856.88
2022-11-09T19:15:32.073Z,96863.41
2022-11-09T19:17:58.473Z,96876.09
2022-11-09T19:20:24.865Z,96870.84
2022-11-09T19:22:51.178Z,96870.00
2022-11-09T19:25:17.488Z,96876.69
2022-11-09T19:27:43.799Z,96887.38
2022-11-09T19:30:10.369Z,96880.50
2022-11-09T19:32:36.702Z,96872.31
2022-11-09T19:35:03.146Z,96875.25
2022-11-09T19:37:29.520Z,96880.81
2022-11-09T19:39:55.905Z,96880.19
2022-11-09T19:42:22.346Z,96876.88
2022-11-09T19:44:52.215Z,96880.97
2022-11-09T19:47:22.520Z,96888.69
2022-11-09T19:49:48.852Z,96884.56
2022-11-09T19:52:15.170Z,96876.84
2022-11-09T19:54:43.236Z,96887.69
2022-11-09T19:57:09.571Z,96888.22
2022-11-09T19:59:35.984Z,96889.31
2022-11-09T20:02:02.401Z,96899.34
2022-11-09T20:04:28.908Z,96901.66
2022-11-09T20:06:55.315Z,96903.75
2022-11-09T20:09:21.710Z,96907.03
2022-11-09T20:12:06.813Z,96910.19
2022-11-09T20:14:33.123Z,96912.00
2022-11-09T20:17:03.321Z,96911.63
2022-11-09T20:19:30.145Z,96911.63
2022-11-09T20:21:57.033Z,96916.25
2022-11-09T20:24:23.365Z,96922.47
2022-11-09T20:26:49.744Z,96935.75
2022-11-09T20:29:16.053Z,96932.63
2022-11-09T20:31:42.516Z,96934.97
2022-11-09T20:34:08.880Z,96945.28
2022-11-09T20:36:35.278Z,96932.00
2022-11-09T20:39:01.603Z,96942.16
2022-11-09T20:41:28.369Z,96947.28
2022-11-09T20:43:54.818Z,96955.47
2022-11-09T20:46:22.669Z,96952.00
2022-11-09T20:48:54.662Z,96952.00
2022-11-09T20:51:22.410Z,96957.75
2022-11-09T20:53:50.240Z,96959.06
2022-11-09T20:56:17.100Z,96951.97
2022-11-09T20:58:43.451Z,96946.91
2022-11-09T21:01:15.094Z,96956.59
2022-11-09T21:03:42.128Z,96949.56
2022-11-09T21:06:09.284Z,96957.44
2022-11-09T21:08:35.802Z,96965.94
2022-11-09T21:11:03.497Z,96973.19
2022-11-09T21:13:29.975Z,96975.13
2022-11-09T21:15:56.403Z,96967.78
2022-11-09T21:18:23.066Z,96970.72
2022-11-09T21:20:49.703Z,96962.34
2022-11-09T21:23:16.024Z,96962.84
2022-11-09T21:26:01.927Z,96963.81
2022-11-09T21:28:47.524Z,96970.06
2022-11-09T21:31:14.206Z,96962.34
2022-11-09T21:33:41.053Z,96967.09
2022-11-09T21:36:08.842Z,96966.78
2022-11-09T21:38:35.803Z,96965.78
2022-11-09T21:41:24.770Z,96977.28
2022-11-09T21:43:54.330Z,96980.38
2022-11-09T21:46:21.445Z,96978.09
2022-11-09T21:48:47.883Z,96978.41
2022-11-09T21:51:14.208Z,96981.06
2022-11-09T21:53:40.524Z,96982.22
2022-11-09T21:56:07.307Z,96987.78
2022-11-09T21:58:33.647Z,96990.72
2022-11-09T22:01:04.613Z,96991.41
2022-11-09T22:03:31.909Z,96987.78
2022-11-09T22:05:58.258Z,96977.13
2022-11-09T22:08:24.855Z,96990.41
2022-11-09T22:10:51.423Z,96988.78
2022-11-09T22:13:36.576Z,96984.16
2022-11-09T22:16:06.357Z,96990.72
2022-11-09T22:18:54.812Z,96992.34
2022-11-09T22:21:22.284Z,96991.56
2022-11-09T22:23:48.695Z,96994.03
2022-11-09T22:26:15.206Z,96986.00
2022-11-09T22:28:41.869Z,96996.44
2022-11-09T22:31:09.194Z,96990.72
2022-11-09T22:33:35.870Z,96991.06
2022-11-09T22:36:04.215Z,96991.56
2022-11-09T22:38:33.870Z,96995.66
2022-11-09T22:41:04.124Z,96994.34
2022-11-09T22:43:34.373Z,96993.03
2022-11-09T22:46:04.219Z,97000.06
2022-11-09T22:48:34.243Z,97004.50
2022-11-09T22:51:02.084Z,97006.66
2022-11-09T22:53:28.406Z,97025.47
2022-11-09T22:55:55.549Z,97031.72
2022-11-09T22:58:22.350Z,97024.53
2022-11-09T23:00:49.334Z,97035.19
2022-11-09T23:03:15.993Z,97037.31
2022-11-09T23:05:42.971Z,97038.63
2022-11-09T23:08:09.768Z,97042.88
2022-11-09T23:10:36.515Z,97041.56
2022-11-09T23:13:03.715Z,97050.41
2022-11-09T23:15:30.569Z,97049.78
2022-11-09T23:18:16.121Z,97054.19
2022-11-09T23:20:42.655Z,97053.41
2022-11-09T23:23:09.447Z,97054.34
2022-11-09T23:25:54.165Z,97048.13
2022-11-09T23:28:20.643Z,97047.97
2022-11-09T23:30:47.281Z,97054.84
2022-11-09T23:33:13.641Z,97051.56
2022-11-09T23:35:40.425Z,97051.91
2022-11-09T23:38:06.733Z,97050.09
2022-11-09T23:40:34.743Z,97055.84
2022-11-09T23:43:01.861Z,97059.59
2022-11-09T23:45:28.566Z,97060.44
2022-11-09T23:47:54.926Z,97067.97
2022-11-09T23:50:21.595Z,97071.75
2022-11-09T23:52:47.906Z,97071.25
2022-11-09T23:55:14.324Z,97066.84
2022-11-09T23:57:40.891Z,97077.00
